sensor_id;sensor_type;location;lat;lon;timestamp;temperature;humidity
20125;DHT22;10223;50.862;4.360;2023-02-20T00:00:49;6.90;99.90
20125;DHT22;10223;50.862;4.360;2023-02-20T00:03:16;7.00;99.90
20125;DHT22;10223;50.862;4.360;2023-02-20T00:05:43;7.00;99.90
20125;DHT22;10223;50.862;4.360;2023-02-20T00:08:10;6.90;99.90
20125;DHT22;10223;50.862;4.360;2023-02-20T00:10:38;6.90;99.90
20125;DHT22;10223;50.862;4.360;2023-02-20T00:13:05;6.90;99.90
20125;DHT22;10223;50.862;4.360;2023-02-20T00:15:34;6.90;99.90
20125;DHT22;10223;50.862;4.360;2023-02-20T00:18:01;6.80;99.90
20125;DHT22;10223;50.862;4.360;2023-02-20T00:20:28;6.80;99.90
20125;DHT22;10223;50.862;4.360;2023-02-20T00:22:57;6.70;99.90
20125;DHT22;10223;50.862;4.360;2023-02-20T00:25:24;6.70;99.90
20125;DHT22;10223;50.862;4.360;2023-02-20T00:27:52;6.70;99.90
20125;DHT22;10223;50.862;4.360;2023-02-20T00:30:21;6.70;99.90
20125;DHT22;10223;50.862;4.360;2023-02-20T00:32:50;6.60;99.90
20125;DHT22;10223;50.862;4.360;2023-02-20T00:35:18;6.70;99.90
20125;DHT22;10223;50.862;4.360;2023-02-20T00:37:46;6.70;99.90
20125;DHT22;10223;50.862;4.360;2023-02-20T00:40:14;6.70;99.90
20125;DHT22;10223;50.862;4.360;2023-02-20T00:42:41;6.70;99.90
20125;DHT22;10223;50.862;4.360;2023-02-20T00:45:10;6.70;99.90
20125;DHT22;10223;50.862;4.360;2023-02-20T00:47:37;6.70;99.90
20125;DHT22;10223;50.862;4.360;2023-02-20T00:50:06;6.70;99.90
20125;DHT22;10223;50.862;4.360;2023-02-20T00:52:33;6.80;99.90
20125;DHT22;10223;50.862;4.360;2023-02-20T00:55:00;6.80;99.90
20125;DHT22;10223;50.862;4.360;2023-02-20T00:57:27;6.80;99.90
20125;DHT22;10223;50.862;4.360;2023-02-20T00:59:54;6.80;99.90
20125;DHT22;10223;50.862;4.360;2023-02-20T01:02:23;6.70;99.90
20125;DHT22;10223;50.862;4.360;2023-02-20T01:04:50;6.80;99.90
20125;DHT22;10223;50.862;4.360;2023-02-20T01:07:17;6.70;99.90
20125;DHT22;10223;50.862;4.360;2023-02-20T01:09:44;6.70;99.90
20125;DHT22;10223;50.862;4.360;2023-02-20T01:12:10;6.80;99.90
20125;DHT22;10223;50.862;4.360;2023-02-20T01:14:37;6.80;99.90
20125;DHT22;10223;50.862;4.360;2023-02-20T01:17:06;6.70;99.90
20125;DHT22;10223;50.862;4.360;2023-02-20T01:19:34;6.70;99.90
20125;DHT22;10223;50.862;4.360;2023-02-20T01:22:02;6.70;99.90
20125;DHT22;10223;50.862;4.360;2023-02-20T01:24:30;6.70;99.90
20125;DHT22;10223;50.862;4.360;2023-02-20T01:26:57;6.70;99.90
20125;DHT22;10223;50.862;4.360;2023-02-20T01:29:24;6.70;99.90
20125;DHT22;10223;50.862;4.360;2023-02-20T01:31:51;6.70;99.90
20125;DHT22;10223;50.862;4.360;2023-02-20T01:34:19;6.60;99.90
20125;DHT22;10223;50.862;4.360;2023-02-20T01:36:48;6.60;99.90
20125;DHT22;10223;50.862;4.360;2023-02-20T01:39:17;6.80;99.90
20125;DHT22;10223;50.862;4.360;2023-02-20T01:41:46;6.70;99.90
20125;DHT22;10223;50.862;4.360;2023-02-20T01:44:19;6.70;99.90
20125;DHT22;10223;50.862;4.360;2023-02-20T01:46:52;6.70;99.90
20125;DHT22;10223;50.862;4.360;2023-02-20T01:49:28;6.70;99.90
20125;DHT22;10223;50.862;4.360;2023-02-20T01:52:04;6.70;99.90
20125;DHT22;10223;50.862;4.360;2023-02-20T01:54:33;6.80;99.90
20125;DHT22;10223;50.862;4.360;2023-02-20T01:57:03;6.70;99.90
20125;DHT22;10223;50.862;4.360;2023-02-20T01:59:33;6.80;99.90
20125;DHT22;10223;50.862;4.360;2023-02-20T02:02:00;6.80;99.90
20125;DHT22;10223;50.862;4.360;2023-02-20T02:04:28;6.80;99.90
20125;DHT22;10223;50.862;4.360;2023-02-20T02:06:55;6.80;99.90
20125;DHT22;10223;50.862;4.360;2023-02-20T02:09:31;6.90;99.90
20125;DHT22;10223;50.862;4.360;2023-02-20T02:11:59;6.80;99.90
20125;DHT22;10223;50.862;4.360;2023-02-20T02:14:26;7.10;99.90
20125;DHT22;10223;50.862;4.360;2023-02-20T02:17:06;7.00;99.90
20125;DHT22;10223;50.862;4.360;2023-02-20T02:19:54;7.00;99.90
20125;DHT22;10223;50.862;4.360;2023-02-20T02:25:38;7.10;99.90
20125;DHT22;10223;50.862;4.360;2023-02-20T02:35:09;7.10;99.90
20125;DHT22;10223;50.862;4.360;2023-02-20T02:37:47;7.10;99.90
20125;DHT22;10223;50.862;4.360;2023-02-20T02:40:20;7.10;99.90
20125;DHT22;10223;50.862;4.360;2023-02-20T02:42:57;7.20;99.90
20125;DHT22;10223;50.862;4.360;2023-02-20T02:45:29;7.10;99.90
20125;DHT22;10223;50.862;4.360;2023-02-20T02:48:06;7.20;99.90
20125;DHT22;10223;50.862;4.360;2023-02-20T02:50:36;7.20;99.90
20125;DHT22;10223;50.862;4.360;2023-02-20T02:53:07;7.20;99.90
20125;DHT22;10223;50.862;4.360;2023-02-20T02:55:34;7.30;99.90
20125;DHT22;10223;50.862;4.360;2023-02-20T02:58:03;7.20;99.90
20125;DHT22;10223;50.862;4.360;2023-02-20T03:00:33;7.20;99.90
20125;DHT22;10223;50.862;4.360;2023-02-20T03:03:06;7.20;99.90
20125;DHT22;10223;50.862;4.360;2023-02-20T03:05:39;7.20;99.90
20125;DHT22;10223;50.862;4.360;2023-02-20T03:08:17;7.20;99.90
20125;DHT22;10223;50.862;4.360;2023-02-20T03:10:59;7.20;99.90
20125;DHT22;10223;50.862;4.360;2023-02-20T03:13:31;7.30;99.90
20125;DHT22;10223;50.862;4.360;2023-02-20T03:16:18;7.30;99.90
20125;DHT22;10223;50.862;4.360;2023-02-20T03:18:47;7.30;99.90
20125;DHT22;10223;50.862;4.360;2023-02-20T03:21:19;7.30;99.90
20125;DHT22;10223;50.862;4.360;2023-02-20T03:23:51;7.30;99.90
20125;DHT22;10223;50.862;4.360;2023-02-20T03:26:24;7.30;99.90
20125;DHT22;10223;50.862;4.360;2023-02-20T03:28:58;7.40;99.90
20125;DHT22;10223;50.862;4.360;2023-02-20T03:31:32;7.30;99.90
20125;DHT22;10223;50.862;4.360;2023-02-20T03:34:03;7.30;99.90
20125;DHT22;10223;50.862;4.360;2023-02-20T03:36:53;7.30;99.90
20125;DHT22;10223;50.862;4.360;2023-02-20T03:39:43;7.30;99.90
20125;DHT22;10223;50.862;4.360;2023-02-20T03:42:31;7.40;99.90
20125;DHT22;10223;50.862;4.360;2023-02-20T03:45:17;7.40;99.90
20125;DHT22;10223;50.862;4.360;2023-02-20T03:47:49;7.40;99.90
20125;DHT22;10223;50.862;4.360;2023-02-20T03:50:18;7.40;99.90
20125;DHT22;10223;50.862;4.360;2023-02-20T03:53:02;7.50;99.90
20125;DHT22;10223;50.862;4.360;2023-02-20T03:55:31;7.50;99.90
20125;DHT22;10223;50.862;4.360;2023-02-20T03:57:59;7.50;99.90
20125;DHT22;10223;50.862;4.360;2023-02-20T04:00:30;7.50;99.90
20125;DHT22;10223;50.862;4.360;2023-02-20T04:03:01;7.40;99.90
20125;DHT22;10223;50.862;4.360;2023-02-20T04:05:35;7.40;99.90
20125;DHT22;10223;50.862;4.360;2023-02-20T04:08:05;7.50;99.90
20125;DHT22;10223;50.862;4.360;2023-02-20T04:10:39;7.40;99.90
20125;DHT22;10223;50.862;4.360;2023-02-20T04:13:09;7.40;99.90
20125;DHT22;10223;50.862;4.360;2023-02-20T04:15:37;7.50;99.90
20125;DHT22;10223;50.862;4.360;2023-02-20T04:18:08;7.50;99.90
20125;DHT22;10223;50.862;4.360;2023-02-20T04:20:36;7.40;99.90
20125;DHT22;10223;50.862;4.360;2023-02-20T04:23:06;7.50;99.90
20125;DHT22;10223;50.862;4.360;2023-02-20T04:25:39;7.50;99.90
20125;DHT22;10223;50.862;4.360;2023-02-20T04:28:09;7.50;99.90
20125;DHT22;10223;50.862;4.360;2023-02-20T04:30:36;7.50;99.90
20125;DHT22;10223;50.862;4.360;2023-02-20T04:33:04;7.40;99.90
20125;DHT22;10223;50.862;4.360;2023-02-20T04:35:31;7.60;99.90
20125;DHT22;10223;50.862;4.360;2023-02-20T04:37:57;7.50;99.90
20125;DHT22;10223;50.862;4.360;2023-02-20T04:40:24;7.60;99.90
20125;DHT22;10223;50.862;4.360;2023-02-20T04:42:53;7.60;99.90
20125;DHT22;10223;50.862;4.360;2023-02-20T04:45:20;7.80;99.90
20125;DHT22;10223;50.862;4.360;2023-02-20T04:47:47;7.70;99.90
20125;DHT22;10223;50.862;4.360;2023-02-20T04:50:19;7.60;99.90
20125;DHT22;10223;50.862;4.360;2023-02-20T04:52:46;7.50;99.90
20125;DHT22;10223;50.862;4.360;2023-02-20T04:55:13;7.60;99.90
20125;DHT22;10223;50.862;4.360;2023-02-20T04:57:40;7.60;99.90
20125;DHT22;10223;50.862;4.360;2023-02-20T05:00:10;7.60;99.90
20125;DHT22;10223;50.862;4.360;2023-02-20T05:02:38;7.50;99.90
20125;DHT22;10223;50.862;4.360;2023-02-20T05:05:06;7.60;99.90
20125;DHT22;10223;50.862;4.360;2023-02-20T05:07:33;7.60;99.90
20125;DHT22;10223;50.862;4.360;2023-02-20T05:10:00;7.60;99.90
20125;DHT22;10223;50.862;4.360;2023-02-20T05:12:27;7.60;99.90
20125;DHT22;10223;50.862;4.360;2023-02-20T05:14:54;7.60;99.90
20125;DHT22;10223;50.862;4.360;2023-02-20T05:17:22;7.60;99.90
20125;DHT22;10223;50.862;4.360;2023-02-20T05:19:49;7.50;99.90
20125;DHT22;10223;50.862;4.360;2023-02-20T05:22:16;7.60;99.90
20125;DHT22;10223;50.862;4.360;2023-02-20T05:24:45;7.60;99.90
20125;DHT22;10223;50.862;4.360;2023-02-20T05:27:13;7.60;99.90
20125;DHT22;10223;50.862;4.360;2023-02-20T05:29:43;7.60;99.90
20125;DHT22;10223;50.862;4.360;2023-02-20T05:32:11;7.70;99.90
20125;DHT22;10223;50.862;4.360;2023-02-20T05:34:39;7.70;99.90
20125;DHT22;10223;50.862;4.360;2023-02-20T05:37:06;7.60;99.90
20125;DHT22;10223;50.862;4.360;2023-02-20T05:39:33;7.70;99.90
20125;DHT22;10223;50.862;4.360;2023-02-20T05:42:00;7.60;99.90
20125;DHT22;10223;50.862;4.360;2023-02-20T05:44:26;7.70;99.90
20125;DHT22;10223;50.862;4.360;2023-02-20T05:46:53;7.60;99.90
20125;DHT22;10223;50.862;4.360;2023-02-20T05:49:21;7.70;99.90
20125;DHT22;10223;50.862;4.360;2023-02-20T05:51:50;7.70;99.90
20125;DHT22;10223;50.862;4.360;2023-02-20T05:54:17;7.60;99.90
20125;DHT22;10223;50.862;4.360;2023-02-20T05:56:45;7.50;99.90
20125;DHT22;10223;50.862;4.360;2023-02-20T05:59:15;7.50;99.90
20125;DHT22;10223;50.862;4.360;2023-02-20T06:01:42;7.60;99.90
20125;DHT22;10223;50.862;4.360;2023-02-20T06:04:10;7.60;99.90
20125;DHT22;10223;50.862;4.360;2023-02-20T06:06:38;7.60;99.90
20125;DHT22;10223;50.862;4.360;2023-02-20T06:09:10;7.60;99.90
20125;DHT22;10223;50.862;4.360;2023-02-20T06:11:37;7.60;99.90
20125;DHT22;10223;50.862;4.360;2023-02-20T06:14:05;7.60;99.90
20125;DHT22;10223;50.862;4.360;2023-02-20T06:16:34;7.60;99.90
20125;DHT22;10223;50.862;4.360;2023-02-20T06:19:01;7.60;99.90
20125;DHT22;10223;50.862;4.360;2023-02-20T06:21:29;7.70;99.90
20125;DHT22;10223;50.862;4.360;2023-02-20T06:23:58;7.70;99.90
20125;DHT22;10223;50.862;4.360;2023-02-20T06:26:26;7.60;99.90
20125;DHT22;10223;50.862;4.360;2023-02-20T06:28:53;7.60;99.90
20125;DHT22;10223;50.862;4.360;2023-02-20T06:31:26;7.60;99.90
20125;DHT22;10223;50.862;4.360;2023-02-20T06:33:54;7.60;99.90
20125;DHT22;10223;50.862;4.360;2023-02-20T06:36:23;7.60;99.90
20125;DHT22;10223;50.862;4.360;2023-02-20T06:38:50;7.60;99.90
20125;DHT22;10223;50.862;4.360;2023-02-20T06:41:18;7.60;99.90
20125;DHT22;10223;50.862;4.360;2023-02-20T06:43:46;7.50;99.90
20125;DHT22;10223;50.862;4.360;2023-02-20T06:46:13;7.50;99.90
20125;DHT22;10223;50.862;4.360;2023-02-20T06:48:43;7.60;99.90
20125;DHT22;10223;50.862;4.360;2023-02-20T06:51:11;7.50;99.90
20125;DHT22;10223;50.862;4.360;2023-02-20T06:53:40;7.70;99.90
20125;DHT22;10223;50.862;4.360;2023-02-20T06:56:08;7.70;99.90
20125;DHT22;10223;50.862;4.360;2023-02-20T06:58:35;7.70;99.90
20125;DHT22;10223;50.862;4.360;2023-02-20T07:01:03;7.80;99.90
20125;DHT22;10223;50.862;4.360;2023-02-20T07:03:30;7.80;99.90
20125;DHT22;10223;50.862;4.360;2023-02-20T07:05:57;7.70;99.90
20125;DHT22;10223;50.862;4.360;2023-02-20T07:08:24;7.60;99.90
20125;DHT22;10223;50.862;4.360;2023-02-20T07:10:51;7.60;99.90
20125;DHT22;10223;50.862;4.360;2023-02-20T07:13:20;7.60;99.90
20125;DHT22;10223;50.862;4.360;2023-02-20T07:15:47;7.70;99.90
20125;DHT22;10223;50.862;4.360;2023-02-20T07:18:15;7.70;99.90
20125;DHT22;10223;50.862;4.360;2023-02-20T07:20:43;7.70;99.90
20125;DHT22;10223;50.862;4.360;2023-02-20T07:23:10;7.60;99.90
20125;DHT22;10223;50.862;4.360;2023-02-20T07:25:37;7.60;99.90
20125;DHT22;10223;50.862;4.360;2023-02-20T07:28:03;7.60;99.90
20125;DHT22;10223;50.862;4.360;2023-02-20T07:30:32;7.70;99.90
20125;DHT22;10223;50.862;4.360;2023-02-20T07:32:59;7.70;99.90
20125;DHT22;10223;50.862;4.360;2023-02-20T07:35:28;7.70;99.90
20125;DHT22;10223;50.862;4.360;2023-02-20T07:37:55;7.70;99.90
20125;DHT22;10223;50.862;4.360;2023-02-20T07:40:21;7.70;99.90
20125;DHT22;10223;50.862;4.360;2023-02-20T07:42:48;7.70;99.90
20125;DHT22;10223;50.862;4.360;2023-02-20T07:45:15;7.70;99.90
20125;DHT22;10223;50.862;4.360;2023-02-20T07:47:42;7.70;99.90
20125;DHT22;10223;50.862;4.360;2023-02-20T07:50:09;7.60;99.90
20125;DHT22;10223;50.862;4.360;2023-02-20T07:52:37;7.80;99.90
20125;DHT22;10223;50.862;4.360;2023-02-20T07:55:04;7.70;99.90
20125;DHT22;10223;50.862;4.360;2023-02-20T07:57:34;7.60;99.90
20125;DHT22;10223;50.862;4.360;2023-02-20T08:00:02;7.60;99.90
20125;DHT22;10223;50.862;4.360;2023-02-20T08:02:29;7.70;99.90
20125;DHT22;10223;50.862;4.360;2023-02-20T08:04:56;7.60;99.90
20125;DHT22;10223;50.862;4.360;2023-02-20T08:07:23;7.70;99.90
20125;DHT22;10223;50.862;4.360;2023-02-20T08:09:51;7.70;99.90
20125;DHT22;10223;50.862;4.360;2023-02-20T08:12:18;7.70;99.90
20125;DHT22;10223;50.862;4.360;2023-02-20T08:14:48;7.70;99.90
20125;DHT22;10223;50.862;4.360;2023-02-20T08:17:16;7.80;99.90
20125;DHT22;10223;50.862;4.360;2023-02-20T08:19:43;7.80;99.90
20125;DHT22;10223;50.862;4.360;2023-02-20T08:22:10;7.70;99.90
20125;DHT22;10223;50.862;4.360;2023-02-20T08:24:37;7.60;99.90
20125;DHT22;10223;50.862;4.360;2023-02-20T08:27:05;7.70;99.90
20125;DHT22;10223;50.862;4.360;2023-02-20T08:29:32;7.90;99.90
20125;DHT22;10223;50.862;4.360;2023-02-20T08:31:59;7.90;99.90
20125;DHT22;10223;50.862;4.360;2023-02-20T08:34:26;7.80;99.90
20125;DHT22;10223;50.862;4.360;2023-02-20T08:36:52;7.90;99.90
20125;DHT22;10223;50.862;4.360;2023-02-20T08:39:19;8.00;99.90
20125;DHT22;10223;50.862;4.360;2023-02-20T08:41:47;8.00;99.90
20125;DHT22;10223;50.862;4.360;2023-02-20T08:44:15;8.00;99.90
20125;DHT22;10223;50.862;4.360;2023-02-20T08:46:46;8.00;99.90
20125;DHT22;10223;50.862;4.360;2023-02-20T08:49:13;8.00;99.90
20125;DHT22;10223;50.862;4.360;2023-02-20T08:51:43;8.00;99.90
20125;DHT22;10223;50.862;4.360;2023-02-20T08:54:10;7.90;99.90
20125;DHT22;10223;50.862;4.360;2023-02-20T08:56:36;8.00;99.90
20125;DHT22;10223;50.862;4.360;2023-02-20T08:59:04;8.00;99.90
20125;DHT22;10223;50.862;4.360;2023-02-20T09:01:32;8.00;99.90
20125;DHT22;10223;50.862;4.360;2023-02-20T09:03:59;8.00;99.90
20125;DHT22;10223;50.862;4.360;2023-02-20T09:06:27;8.00;99.90
20125;DHT22;10223;50.862;4.360;2023-02-20T09:08:54;8.00;99.90
20125;DHT22;10223;50.862;4.360;2023-02-20T09:11:21;8.00;99.90
20125;DHT22;10223;50.862;4.360;2023-02-20T09:13:48;8.00;99.90
20125;DHT22;10223;50.862;4.360;2023-02-20T09:16:18;8.00;99.90
20125;DHT22;10223;50.862;4.360;2023-02-20T09:18:47;8.00;99.90
20125;DHT22;10223;50.862;4.360;2023-02-20T09:21:15;8.00;99.90
20125;DHT22;10223;50.862;4.360;2023-02-20T09:23:43;8.00;99.90
20125;DHT22;10223;50.862;4.360;2023-02-20T09:26:10;8.10;99.90
20125;DHT22;10223;50.862;4.360;2023-02-20T09:28:37;8.20;99.90
20125;DHT22;10223;50.862;4.360;2023-02-20T09:31:05;8.20;99.90
20125;DHT22;10223;50.862;4.360;2023-02-20T09:33:32;8.10;99.90
20125;DHT22;10223;50.862;4.360;2023-02-20T09:36:00;8.10;99.90
20125;DHT22;10223;50.862;4.360;2023-02-20T09:38:27;8.10;99.90
20125;DHT22;10223;50.862;4.360;2023-02-20T09:40:57;8.10;99.90
20125;DHT22;10223;50.862;4.360;2023-02-20T09:43:33;8.10;99.90
20125;DHT22;10223;50.862;4.360;2023-02-20T09:46:05;8.20;99.90
20125;DHT22;10223;50.862;4.360;2023-02-20T09:48:45;8.20;99.90
20125;DHT22;10223;50.862;4.360;2023-02-20T09:51:20;8.20;99.90
20125;DHT22;10223;50.862;4.360;2023-02-20T09:53:51;8.20;99.90
20125;DHT22;10223;50.862;4.360;2023-02-20T09:56:21;8.20;99.90
20125;DHT22;10223;50.862;4.360;2023-02-20T09:58:52;8.20;99.90
20125;DHT22;10223;50.862;4.360;2023-02-20T10:01:22;8.20;99.90
20125;DHT22;10223;50.862;4.360;2023-02-20T10:03:55;8.20;99.90
20125;DHT22;10223;50.862;4.360;2023-02-20T10:06:25;8.30;99.90
20125;DHT22;10223;50.862;4.360;2023-02-20T10:08:54;8.40;99.90
20125;DHT22;10223;50.862;4.360;2023-02-20T10:11:40;8.30;99.90
20125;DHT22;10223;50.862;4.360;2023-02-20T10:14:24;8.40;99.90
20125;DHT22;10223;50.862;4.360;2023-02-20T10:17:02;8.30;99.90
20125;DHT22;10223;50.862;4.360;2023-02-20T10:19:38;8.40;99.90
20125;DHT22;10223;50.862;4.360;2023-02-20T10:22:13;8.40;99.90
20125;DHT22;10223;50.862;4.360;2023-02-20T10:24:52;8.40;99.90
20125;DHT22;10223;50.862;4.360;2023-02-20T10:27:30;8.30;99.90
20125;DHT22;10223;50.862;4.360;2023-02-20T10:30:01;8.30;99.90
20125;DHT22;10223;50.862;4.360;2023-02-20T10:32:37;8.40;99.90
20125;DHT22;10223;50.862;4.360;2023-02-20T10:35:11;8.30;99.90
20125;DHT22;10223;50.862;4.360;2023-02-20T10:37:43;8.30;99.90
20125;DHT22;10223;50.862;4.360;2023-02-20T10:40:17;8.40;99.90
20125;DHT22;10223;50.862;4.360;2023-02-20T10:42:50;8.30;99.90
20125;DHT22;10223;50.862;4.360;2023-02-20T10:45:23;8.40;99.90
20125;DHT22;10223;50.862;4.360;2023-02-20T10:47:56;8.40;99.90
20125;DHT22;10223;50.862;4.360;2023-02-20T10:50:29;8.50;99.90
20125;DHT22;10223;50.862;4.360;2023-02-20T10:53:03;8.50;99.90
20125;DHT22;10223;50.862;4.360;2023-02-20T10:55:35;8.60;99.90
20125;DHT22;10223;50.862;4.360;2023-02-20T10:58:09;8.60;99.90
20125;DHT22;10223;50.862;4.360;2023-02-20T11:00:40;8.60;99.90
20125;DHT22;10223;50.862;4.360;2023-02-20T11:03:16;8.50;99.90
20125;DHT22;10223;50.862;4.360;2023-02-20T11:05:48;8.60;99.90
20125;DHT22;10223;50.862;4.360;2023-02-20T11:08:18;8.70;99.90
20125;DHT22;10223;50.862;4.360;2023-02-20T11:10:46;8.60;99.90
20125;DHT22;10223;50.862;4.360;2023-02-20T11:13:16;8.60;99.90
20125;DHT22;10223;50.862;4.360;2023-02-20T11:15:44;8.80;99.90
20125;DHT22;10223;50.862;4.360;2023-02-20T11:18:19;8.60;99.90
20125;DHT22;10223;50.862;4.360;2023-02-20T11:20:51;8.60;99.90
20125;DHT22;10223;50.862;4.360;2023-02-20T11:23:40;8.60;99.90
20125;DHT22;10223;50.862;4.360;2023-02-20T11:26:24;8.60;99.90
20125;DHT22;10223;50.862;4.360;2023-02-20T11:28:57;8.60;99.90
20125;DHT22;10223;50.862;4.360;2023-02-20T11:31:25;8.70;99.90
20125;DHT22;10223;50.862;4.360;2023-02-20T11:33:54;8.70;99.90
20125;DHT22;10223;50.862;4.360;2023-02-20T11:36:22;8.60;99.90
20125;DHT22;10223;50.862;4.360;2023-02-20T11:38:57;8.70;99.90
20125;DHT22;10223;50.862;4.360;2023-02-20T11:41:30;8.70;99.90
20125;DHT22;10223;50.862;4.360;2023-02-20T11:44:06;8.70;99.90
20125;DHT22;10223;50.862;4.360;2023-02-20T11:46:33;8.70;99.90
20125;DHT22;10223;50.862;4.360;2023-02-20T11:49:02;8.80;99.90
20125;DHT22;10223;50.862;4.360;2023-02-20T11:51:35;8.80;99.90
20125;DHT22;10223;50.862;4.360;2023-02-20T11:54:11;8.70;99.90
20125;DHT22;10223;50.862;4.360;2023-02-20T11:56:56;8.70;99.90
20125;DHT22;10223;50.862;4.360;2023-02-20T11:59:37;8.80;99.90
20125;DHT22;10223;50.862;4.360;2023-02-20T12:02:18;8.90;99.90
20125;DHT22;10223;50.862;4.360;2023-02-20T12:05:07;8.90;99.90
20125;DHT22;10223;50.862;4.360;2023-02-20T12:07:37;9.00;99.90
20125;DHT22;10223;50.862;4.360;2023-02-20T12:10:20;9.00;99.90
20125;DHT22;10223;50.862;4.360;2023-02-20T12:12:49;9.00;99.90
20125;DHT22;10223;50.862;4.360;2023-02-20T12:15:18;8.90;99.90
20125;DHT22;10223;50.862;4.360;2023-02-20T12:18:00;8.90;99.90
20125;DHT22;10223;50.862;4.360;2023-02-20T12:20:30;8.90;99.90
20125;DHT22;10223;50.862;4.360;2023-02-20T12:23:08;8.90;99.90
20125;DHT22;10223;50.862;4.360;2023-02-20T12:25:54;8.80;99.90
20125;DHT22;10223;50.862;4.360;2023-02-20T12:28:28;8.80;99.90
20125;DHT22;10223;50.862;4.360;2023-02-20T12:31:04;8.90;99.90
20125;DHT22;10223;50.862;4.360;2023-02-20T12:33:56;9.10;99.90
20125;DHT22;10223;50.862;4.360;2023-02-20T12:36:30;9.10;99.90
20125;DHT22;10223;50.862;4.360;2023-02-20T12:39:04;9.10;99.90
20125;DHT22;10223;50.862;4.360;2023-02-20T12:41:47;9.10;99.90
20125;DHT22;10223;50.862;4.360;2023-02-20T12:44:37;9.00;99.90
20125;DHT22;10223;50.862;4.360;2023-02-20T12:47:17;9.10;99.90
20125;DHT22;10223;50.862;4.360;2023-02-20T12:50:03;9.20;99.90
20125;DHT22;10223;50.862;4.360;2023-02-20T12:52:56;9.10;99.90
20125;DHT22;10223;50.862;4.360;2023-02-20T12:55:30;9.00;99.90
20125;DHT22;10223;50.862;4.360;2023-02-20T12:58:09;9.00;99.90
20125;DHT22;10223;50.862;4.360;2023-02-20T13:00:45;9.10;99.90
20125;DHT22;10223;50.862;4.360;2023-02-20T13:03:17;9.10;99.90
20125;DHT22;10223;50.862;4.360;2023-02-20T13:05:47;9.00;99.90
20125;DHT22;10223;50.862;4.360;2023-02-20T13:08:20;9.10;99.90
20125;DHT22;10223;50.862;4.360;2023-02-20T13:10:52;9.20;99.90
20125;DHT22;10223;50.862;4.360;2023-02-20T13:13:25;9.20;99.90
20125;DHT22;10223;50.862;4.360;2023-02-20T13:16:00;9.20;99.90
20125;DHT22;10223;50.862;4.360;2023-02-20T13:18:35;9.30;99.90
20125;DHT22;10223;50.862;4.360;2023-02-20T13:21:09;9.30;99.90
20125;DHT22;10223;50.862;4.360;2023-02-20T13:23:38;9.30;99.90
20125;DHT22;10223;50.862;4.360;2023-02-20T13:29:14;9.20;99.90
20125;DHT22;10223;50.862;4.360;2023-02-20T13:31:45;9.20;99.90
20125;DHT22;10223;50.862;4.360;2023-02-20T13:34:36;9.20;99.90
20125;DHT22;10223;50.862;4.360;2023-02-20T13:37:04;9.20;99.90
20125;DHT22;10223;50.862;4.360;2023-02-20T13:39:51;9.20;99.90
20125;DHT22;10223;50.862;4.360;2023-02-20T13:42:26;9.30;99.90
20125;DHT22;10223;50.862;4.360;2023-02-20T13:44:54;9.40;99.90
20125;DHT22;10223;50.862;4.360;2023-02-20T13:47:35;9.30;99.90
20125;DHT22;10223;50.862;4.360;2023-02-20T13:50:29;9.20;99.90
20125;DHT22;10223;50.862;4.360;2023-02-20T13:53:01;9.20;99.90
20125;DHT22;10223;50.862;4.360;2023-02-20T13:55:30;9.30;99.90
20125;DHT22;10223;50.862;4.360;2023-02-20T13:58:03;9.20;99.90
20125;DHT22;10223;50.862;4.360;2023-02-20T14:00:43;9.30;99.90
20125;DHT22;10223;50.862;4.360;2023-02-20T14:03:13;9.20;99.90
20125;DHT22;10223;50.862;4.360;2023-02-20T14:05:40;9.40;99.90
20125;DHT22;10223;50.862;4.360;2023-02-20T14:08:15;9.40;99.90
20125;DHT22;10223;50.862;4.360;2023-02-20T14:10:42;9.30;99.90
20125;DHT22;10223;50.862;4.360;2023-02-20T14:13:17;9.20;99.90
20125;DHT22;10223;50.862;4.360;2023-02-20T14:15:48;9.30;99.90
20125;DHT22;10223;50.862;4.360;2023-02-20T14:18:17;9.30;99.90
20125;DHT22;10223;50.862;4.360;2023-02-20T14:20:45;9.30;99.90
20125;DHT22;10223;50.862;4.360;2023-02-20T14:23:19;9.30;99.90
20125;DHT22;10223;50.862;4.360;2023-02-20T14:25:57;9.30;99.90
20125;DHT22;10223;50.862;4.360;2023-02-20T14:28:25;9.30;99.90
20125;DHT22;10223;50.862;4.360;2023-02-20T14:31:06;9.30;99.90
20125;DHT22;10223;50.862;4.360;2023-02-20T14:33:33;9.30;99.90
20125;DHT22;10223;50.862;4.360;2023-02-20T14:36:13;9.30;99.90
20125;DHT22;10223;50.862;4.360;2023-02-20T14:38:56;9.30;99.90
20125;DHT22;10223;50.862;4.360;2023-02-20T14:41:26;9.40;99.90
20125;DHT22;10223;50.862;4.360;2023-02-20T14:43:57;9.50;99.90
20125;DHT22;10223;50.862;4.360;2023-02-20T14:46:27;9.40;99.90
20125;DHT22;10223;50.862;4.360;2023-02-20T14:49:06;9.40;99.90
20125;DHT22;10223;50.862;4.360;2023-02-20T14:51:34;9.40;99.90
20125;DHT22;10223;50.862;4.360;2023-02-20T14:54:02;9.30;99.90
20125;DHT22;10223;50.862;4.360;2023-02-20T14:56:36;9.40;99.90
20125;DHT22;10223;50.862;4.360;2023-02-20T14:59:22;9.30;99.90
20125;DHT22;10223;50.862;4.360;2023-02-20T15:01:51;9.30;99.90
20125;DHT22;10223;50.862;4.360;2023-02-20T15:04:19;9.30;99.90
20125;DHT22;10223;50.862;4.360;2023-02-20T15:06:49;9.30;99.90
20125;DHT22;10223;50.862;4.360;2023-02-20T15:09:16;9.30;99.90
20125;DHT22;10223;50.862;4.360;2023-02-20T15:11:46;9.30;99.90
20125;DHT22;10223;50.862;4.360;2023-02-20T15:14:17;9.30;99.90
20125;DHT22;10223;50.862;4.360;2023-02-20T15:16:45;9.20;99.90
20125;DHT22;10223;50.862;4.360;2023-02-20T15:19:32;9.30;99.90
20125;DHT22;10223;50.862;4.360;2023-02-20T15:22:00;9.40;99.90
20125;DHT22;10223;50.862;4.360;2023-02-20T15:24:34;9.40;99.90
20125;DHT22;10223;50.862;4.360;2023-02-20T15:27:09;9.40;99.90
20125;DHT22;10223;50.862;4.360;2023-02-20T15:29:36;9.30;99.90
20125;DHT22;10223;50.862;4.360;2023-02-20T15:32:05;9.30;99.90
20125;DHT22;10223;50.862;4.360;2023-02-20T15:34:41;9.40;99.90
20125;DHT22;10223;50.862;4.360;2023-02-20T15:37:18;9.40;99.90
20125;DHT22;10223;50.862;4.360;2023-02-20T15:39:46;9.30;99.90
20125;DHT22;10223;50.862;4.360;2023-02-20T15:42:15;9.30;99.90
20125;DHT22;10223;50.862;4.360;2023-02-20T15:44:42;9.30;99.90
20125;DHT22;10223;50.862;4.360;2023-02-20T15:47:09;9.30;99.90
20125;DHT22;10223;50.862;4.360;2023-02-20T15:49:36;9.40;99.90
20125;DHT22;10223;50.862;4.360;2023-02-20T15:52:06;9.30;99.90
20125;DHT22;10223;50.862;4.360;2023-02-20T15:54:36;9.40;99.90
20125;DHT22;10223;50.862;4.360;2023-02-20T15:57:12;9.40;99.90
20125;DHT22;10223;50.862;4.360;2023-02-20T15:59:41;9.40;99.90
20125;DHT22;10223;50.862;4.360;2023-02-20T16:02:12;9.40;99.90
20125;DHT22;10223;50.862;4.360;2023-02-20T16:04:40;9.40;99.90
20125;DHT22;10223;50.862;4.360;2023-02-20T16:07:08;9.30;99.90
20125;DHT22;10223;50.862;4.360;2023-02-20T16:09:35;9.30;99.90
20125;DHT22;10223;50.862;4.360;2023-02-20T16:12:02;9.30;99.90
20125;DHT22;10223;50.862;4.360;2023-02-20T16:14:29;9.30;99.90
20125;DHT22;10223;50.862;4.360;2023-02-20T16:16:57;9.30;99.90
20125;DHT22;10223;50.862;4.360;2023-02-20T16:19:24;9.30;99.90
20125;DHT22;10223;50.862;4.360;2023-02-20T16:21:53;9.30;99.90